createdAt,value
2022-08-18T00:02:43.495Z,64.39
2022-08-18T00:07:58.599Z,64.79
2022-08-18T00:13:04.264Z,65.29
2022-08-18T00:18:08.260Z,64.95
2022-08-18T00:23:13.566Z,64.49
2022-08-18T00:28:19.548Z,64.53
2022-08-18T00:33:28.537Z,64.33
2022-08-18T00:38:32.610Z,65.95
2022-08-18T00:43:50.104Z,66.88
2022-08-18T00:48:54.203Z,66.62
2022-08-18T00:54:03.373Z,66.11
2022-08-18T00:59:12.980Z,66.28
2022-08-18T01:04:22.000Z,66.51
2022-08-18T01:09:25.770Z,67.56
2022-08-18T01:14:31.193Z,67.56
2022-08-18T01:19:52.929Z,66.94
2022-08-18T01:25:18.245Z,66.88
2022-08-18T01:30:25.596Z,67.46
2022-08-18T01:35:30.084Z,67.69
2022-08-18T01:41:17.511Z,67.72
2022-08-18T01:46:11.790Z,68.09
2022-08-18T01:51:16.822Z,67.28
2022-08-18T01:56:22.477Z,67.31
2022-08-18T02:01:36.487Z,66.34
2022-08-18T02:06:42.356Z,67.91
2022-08-18T02:11:56.000Z,68.44
2022-08-18T02:17:02.869Z,68.95
2022-08-18T02:22:09.413Z,68.96
2022-08-18T02:27:16.619Z,69.18
2022-08-18T02:32:20.808Z,69.29
2022-08-18T02:37:24.891Z,69.73
2022-08-18T02:42:31.209Z,69.45
2022-08-18T02:47:35.481Z,69.83
2022-08-18T02:52:40.766Z,70.43
2022-08-18T02:57:48.996Z,70.87
2022-08-18T03:02:54.575Z,70.63
2022-08-18T03:07:59.838Z,70.27
2022-08-18T03:13:07.898Z,72.08
2022-08-18T03:18:12.369Z,71.49
2022-08-18T03:23:16.803Z,71.12
2022-08-18T03:28:22.628Z,72.34
2022-08-18T03:33:26.649Z,72.63
2022-08-18T03:38:30.696Z,73.81
2022-08-18T03:43:50.661Z,72.98
2022-08-18T03:48:58.978Z,72.64
2022-08-18T03:54:04.819Z,73.51
2022-08-18T03:59:12.959Z,73.58
2022-08-18T04:04:20.448Z,72.56
2022-08-18T04:09:28.569Z,74.10
2022-08-18T04:14:34.008Z,72.69
2022-08-18T04:19:38.143Z,72.66
2022-08-18T04:24:42.724Z,73.25
2022-08-18T04:29:51.576Z,74.16
2022-08-18T04:34:55.930Z,73.83
2022-08-18T04:40:02.460Z,72.95
2022-08-18T04:45:08.888Z,73.33
2022-08-18T04:50:13.240Z,73.85
2022-08-18T04:55:17.222Z,72.11
2022-08-18T05:00:23.416Z,71.92
2022-08-18T05:05:27.951Z,71.92
2022-08-18T05:10:32.463Z,70.98
2022-08-18T05:15:59.355Z,70.11
2022-08-18T05:21:02.723Z,69.07
2022-08-18T05:26:11.116Z,68.46
2022-08-18T05:31:19.200Z,66.87
2022-08-18T05:36:47.356Z,66.45
2022-08-18T05:41:55.389Z,65.70
2022-08-18T05:47:06.774Z,65.12
2022-08-18T05:52:17.146Z,66.11
2022-08-18T05:57:23.481Z,65.61
2022-08-18T06:02:34.852Z,65.01
2022-08-18T06:07:46.939Z,63.75
2022-08-18T06:12:55.477Z,63.13
2022-08-18T06:18:20.380Z,63.24
2022-08-18T06:23:34.379Z,62.24
2022-08-18T06:28:52.886Z,60.83
2022-08-18T06:34:10.485Z,60.37
2022-08-18T06:39:24.362Z,60.30
2022-08-18T06:44:35.168Z,59.12
2022-08-18T06:49:47.159Z,58.72
2022-08-18T06:54:51.896Z,58.17
2022-08-18T06:59:58.730Z,57.37
2022-08-18T07:05:08.131Z,56.32
2022-08-18T07:10:33.958Z,55.33
2022-08-18T07:15:38.383Z,54.13
2022-08-18T07:20:49.974Z,53.21
2022-08-18T07:26:03.398Z,52.01
2022-08-18T07:31:37.896Z,50.48
2022-08-18T07:36:50.431Z,49.11
2022-08-18T07:42:00.667Z,48.31
2022-08-18T07:47:09.506Z,45.45
2022-08-18T07:52:44.577Z,45.03
2022-08-18T07:57:51.855Z,43.48
2022-08-18T08:03:23.789Z,43.63
2022-08-18T08:08:36.939Z,42.59
2022-08-18T08:14:01.646Z,40.83
2022-08-18T08:19:16.639Z,41.08
2022-08-18T08:24:33.173Z,36.98
2022-08-18T08:29:44.109Z,35.17
2022-08-18T08:34:53.799Z,34.21
2022-08-18T08:40:08.530Z,34.19
2022-08-18T08:45:17.728Z,33.20
2022-08-18T08:50:26.375Z,31.48
2022-08-18T08:55:35.337Z,32.31
2022-08-18T09:00:42.280Z,31.35
2022-08-18T09:05:57.130Z,30.81
2022-08-18T09:11:53.608Z,30.75
2022-08-18T09:17:13.829Z,30.24
2022-08-18T09:22:31.208Z,29.74
2022-08-18T09:28:09.289Z,30.27
2022-08-18T09:33:21.558Z,29.57
2022-08-18T09:38:48.473Z,29.07
2022-08-18T09:49:51.105Z,28.15
2022-08-18T09:50:38.284Z,29.06
2022-08-18T09:55:01.280Z,27.71
2022-08-18T10:00:30.481Z,27.12
2022-08-18T10:05:37.709Z,27.36
2022-08-18T10:11:02.401Z,27.08
2022-08-18T10:16:23.879Z,27.38
2022-08-18T10:21:31.082Z,26.95
2022-08-18T10:27:13.439Z,26.64
2022-08-18T10:32:54.072Z,26.18
2022-08-18T10:37:59.053Z,26.17
2022-08-18T10:43:45.171Z,26.95
2022-08-18T10:48:43.548Z,26.07
2022-08-18T10:53:52.405Z,26.40
2022-08-18T10:59:19.516Z,25.76
2022-08-18T11:04:38.917Z,25.07
2022-08-18T11:09:50.745Z,25.39
2022-08-18T11:15:21.157Z,24.06
2022-08-18T11:20:32.768Z,24.00
2022-08-18T11:25:40.071Z,24.83
2022-08-18T11:30:49.893Z,24.69
2022-08-18T11:36:01.171Z,24.21
2022-08-18T11:41:17.229Z,23.52
2022-08-18T11:46:31.959Z,23.69
2022-08-18T11:51:41.071Z,23.73
2022-08-18T11:56:48.655Z,24.61
2022-08-18T12:01:55.847Z,23.55
2022-08-18T12:07:05.238Z,23.65
2022-08-18T12:12:19.318Z,23.23
2022-08-18T12:17:25.955Z,21.24
2022-08-18T12:22:46.309Z,21.47
2022-08-18T12:27:50.751Z,21.29
2022-08-18T12:33:00.818Z,21.22
2022-08-18T12:38:13.878Z,22.62
2022-08-18T12:43:18.811Z,22.89
2022-08-18T12:48:24.529Z,23.24
2022-08-18T12:53:57.913Z,23.46
2022-08-18T12:59:15.680Z,22.83
2022-08-18T13:04:26.993Z,23.98
2022-08-18T13:09:52.669Z,25.07
2022-08-18T13:14:58.810Z,25.48
2022-08-18T13:20:15.630Z,25.60
2022-08-18T13:25:46.968Z,25.11
2022-08-18T13:30:51.862Z,24.44
2022-08-18T13:35:57.164Z,24.50
2022-08-18T13:41:15.707Z,24.46
2022-08-18T13:46:31.290Z,24.09
2022-08-18T13:51:39.531Z,24.24
2022-08-18T13:56:59.035Z,23.66
2022-08-18T14:02:10.887Z,23.60
2022-08-18T14:07:19.118Z,23.93
2022-08-18T14:12:33.380Z,23.16
2022-08-18T14:17:38.675Z,23.52
2022-08-18T14:23:00.678Z,23.06
2022-08-18T14:28:06.373Z,22.87
2022-08-18T14:33:11.769Z,23.60
2022-08-18T14:38:16.537Z,23.82
2022-08-18T14:43:24.988Z,23.78
2022-08-18T14:48:31.771Z,22.70
2022-08-18T14:53:51.347Z,24.20
2022-08-18T14:59:02.275Z,24.45
2022-08-18T15:04:19.322Z,25.11
2022-08-18T15:09:28.754Z,25.58
2022-08-18T15:14:37.485Z,24.74
2022-08-18T15:20:00.381Z,24.82
2022-08-18T15:25:24.018Z,24.57
2022-08-18T15:30:33.501Z,24.51
2022-08-18T15:35:44.150Z,24.29
2022-08-18T15:40:53.820Z,24.50
2022-08-18T15:46:03.743Z,24.75
2022-08-18T15:51:11.799Z,25.85
2022-08-18T15:56:20.695Z,25.67
2022-08-18T16:01:30.231Z,26.34
2022-08-18T16:06:45.192Z,26.27
2022-08-18T16:11:51.122Z,26.01
2022-08-18T16:16:56.572Z,26.97
2022-08-18T16:22:00.984Z,27.42
2022-08-18T16:27:06.597Z,27.60
2022-08-18T16:32:16.448Z,28.04
2022-08-18T16:37:21.525Z,28.88
2022-08-18T16:42:25.573Z,29.58
2022-08-18T16:47:32.977Z,30.26
2022-08-18T16:52:38.234Z,30.04
2022-08-18T16:58:01.408Z,30.48
2022-08-18T17:03:26.065Z,30.94
2022-08-18T17:08:34.341Z,31.51
2022-08-18T17:13:40.239Z,32.02
2022-08-18T17:18:46.605Z,32.61
2022-08-18T17:23:51.785Z,34.76
2022-08-18T17:29:03.329Z,36.46
2022-08-18T17:34:15.147Z,37.39
2022-08-18T17:39:22.371Z,37.99
2022-08-18T17:44:31.497Z,38.56
2022-08-18T17:50:26.523Z,37.86
2022-08-18T17:55:28.555Z,39.82
2022-08-18T18:00:32.725Z,40.38
2022-08-18T18:05:42.939Z,40.26
2022-08-18T18:11:04.488Z,40.56
2022-08-18T18:16:24.682Z,40.93
2022-08-18T18:21:53.405Z,42.26
2022-08-18T18:26:55.431Z,42.06
2022-08-18T18:32:02.935Z,42.25
2022-08-18T18:37:29.350Z,42.16
2022-08-18T18:42:37.214Z,43.30
2022-08-18T18:47:55.992Z,42.66
2022-08-18T18:53:09.801Z,41.83
2022-08-18T18:58:27.440Z,42.48
2022-08-18T19:03:37.472Z,42.60
2022-08-18T19:08:52.206Z,43.38
2022-08-18T19:14:02.786Z,43.28
2022-08-18T19:19:38.425Z,41.70
2022-08-18T19:24:52.516Z,42.65
2022-08-18T19:30:05.119Z,43.75
2022-08-18T19:35:13.295Z,45.54
2022-08-18T19:40:24.593Z,45.91
2022-08-18T19:45:36.022Z,47.02
2022-08-18T19:50:47.207Z,47.32
2022-08-18T19:56:21.636Z,45.67
2022-08-18T20:01:36.186Z,45.84
2022-08-18T20:07:10.045Z,45.89
2022-08-18T20:12:26.909Z,45.62
2022-08-18T20:17:31.305Z,45.96
2022-08-18T20:22:39.825Z,45.96
2022-08-18T20:27:50.611Z,47.10
2022-08-18T20:33:14.091Z,47.91
2022-08-18T20:38:29.387Z,48.43
2022-08-18T20:43:36.218Z,48.38
2022-08-18T20:49:06.234Z,49.03
2022-08-18T20:54:32.609Z,48.75
2022-08-18T20:59:44.908Z,49.23
2022-08-18T21:04:51.357Z,50.27
2022-08-18T21:09:59.230Z,50.34
2022-08-18T21:15:10.834Z,51.81
2022-08-18T21:20:17.449Z,51.48
2022-08-18T21:25:21.587Z,51.83
2022-08-18T21:30:28.491Z,51.35
2022-08-18T21:35:34.771Z,53.82
2022-08-18T21:40:41.214Z,53.41
2022-08-18T21:45:59.145Z,54.86
2022-08-18T21:51:03.223Z,55.71
2022-08-18T21:56:08.938Z,55.83
2022-08-18T22:01:21.885Z,54.96
2022-08-18T22:06:37.356Z,54.12
2022-08-18T22:12:01.069Z,54.52
2022-08-18T22:17:29.453Z,54.22
2022-08-18T22:22:53.942Z,55.11
2022-08-18T22:28:00.643Z,54.77
2022-08-18T22:33:06.258Z,54.67
2022-08-18T22:38:12.684Z,54.55
2022-08-18T22:43:18.925Z,55.05
2022-08-18T22:48:24.292Z,55.15
2022-08-18T22:53:28.721Z,56.69
2022-08-18T22:58:33.186Z,57.13
2022-08-18T23:03:42.027Z,56.59
2022-08-18T23:08:55.345Z,56.50
2022-08-18T23:14:02.504Z,56.54
2022-08-18T23:19:07.926Z,56.25
2022-08-18T23:24:15.178Z,55.77
2022-08-18T23:29:20.070Z,55.88
2022-08-18T23:34:27.346Z,56.64
2022-08-18T23:39:33.667Z,56.94
2022-08-18T23:44:37.678Z,57.13
2022-08-18T23:49:43.036Z,57.72
2022-08-18T23:54:47.262Z,56.67
2022-08-18T23:59:51.333Z,56.97
